sensor_id;sensor_type;location;lat;lon;timestamp;temperature;humidity
13794;DHT22;31160;49.500;7.772;2023-08-17T00:00:14;18.20;99.90
13794;DHT22;31160;49.500;7.772;2023-08-17T00:02:41;18.10;99.90
13794;DHT22;31160;49.500;7.772;2023-08-17T00:05:08;18.20;99.90
13794;DHT22;31160;49.500;7.772;2023-08-17T00:07:36;18.20;99.90
13794;DHT22;31160;49.500;7.772;2023-08-17T00:10:04;18.10;99.90
13794;DHT22;31160;49.500;7.772;2023-08-17T00:12:32;18.10;99.90
13794;DHT22;31160;49.500;7.772;2023-08-17T00:14:58;18.20;99.90
13794;DHT22;31160;49.500;7.772;2023-08-17T00:17:25;18.10;99.90
13794;DHT22;31160;49.500;7.772;2023-08-17T00:19:52;18.10;99.90
13794;DHT22;31160;49.500;7.772;2023-08-17T00:22:19;18.10;99.90
13794;DHT22;31160;49.500;7.772;2023-08-17T00:24:46;18.10;99.90
13794;DHT22;31160;49.500;7.772;2023-08-17T00:27:12;18.10;99.90
13794;DHT22;31160;49.500;7.772;2023-08-17T00:29:40;18.10;99.90
13794;DHT22;31160;49.500;7.772;2023-08-17T00:32:07;18.10;99.90
13794;DHT22;31160;49.500;7.772;2023-08-17T00:34:35;18.10;99.90
13794;DHT22;31160;49.500;7.772;2023-08-17T00:37:02;18.10;99.90
13794;DHT22;31160;49.500;7.772;2023-08-17T00:39:28;18.10;99.90
13794;DHT22;31160;49.500;7.772;2023-08-17T00:41:55;18.10;99.90
13794;DHT22;31160;49.500;7.772;2023-08-17T00:44:22;18.10;99.90
13794;DHT22;31160;49.500;7.772;2023-08-17T00:46:49;18.10;99.90
13794;DHT22;31160;49.500;7.772;2023-08-17T00:49:16;18.10;99.90
13794;DHT22;31160;49.500;7.772;2023-08-17T00:51:42;18.00;99.90
13794;DHT22;31160;49.500;7.772;2023-08-17T00:54:10;17.90;99.90
13794;DHT22;31160;49.500;7.772;2023-08-17T00:56:37;17.90;99.90
13794;DHT22;31160;49.500;7.772;2023-08-17T00:59:04;17.80;99.90
13794;DHT22;31160;49.500;7.772;2023-08-17T01:01:32;17.80;99.90
13794;DHT22;31160;49.500;7.772;2023-08-17T01:03:59;17.70;99.90
13794;DHT22;31160;49.500;7.772;2023-08-17T01:06:25;17.60;99.90
13794;DHT22;31160;49.500;7.772;2023-08-17T01:08:53;17.60;99.90
13794;DHT22;31160;49.500;7.772;2023-08-17T01:11:28;17.60;99.90
13794;DHT22;31160;49.500;7.772;2023-08-17T01:14:04;17.60;99.90
13794;DHT22;31160;49.500;7.772;2023-08-17T01:16:56;17.60;99.90
13794;DHT22;31160;49.500;7.772;2023-08-17T01:19:27;17.60;99.90
13794;DHT22;31160;49.500;7.772;2023-08-17T01:22:03;17.70;99.90
13794;DHT22;31160;49.500;7.772;2023-08-17T01:24:30;17.70;99.90
13794;DHT22;31160;49.500;7.772;2023-08-17T01:26:57;17.60;99.90
13794;DHT22;31160;49.500;7.772;2023-08-17T01:29:24;17.60;99.90
13794;DHT22;31160;49.500;7.772;2023-08-17T01:32:45;17.60;99.90
13794;DHT22;31160;49.500;7.772;2023-08-17T01:35:22;17.70;99.90
13794;DHT22;31160;49.500;7.772;2023-08-17T01:37:53;17.70;99.90
13794;DHT22;31160;49.500;7.772;2023-08-17T01:40:22;17.60;99.90
13794;DHT22;31160;49.500;7.772;2023-08-17T01:42:50;17.60;99.90
13794;DHT22;31160;49.500;7.772;2023-08-17T01:45:20;17.60;99.90
13794;DHT22;31160;49.500;7.772;2023-08-17T01:47:47;17.60;99.90
13794;DHT22;31160;49.500;7.772;2023-08-17T01:50:15;17.60;99.90
13794;DHT22;31160;49.500;7.772;2023-08-17T01:52:42;17.60;99.90
13794;DHT22;31160;49.500;7.772;2023-08-17T01:55:09;17.50;99.90
13794;DHT22;31160;49.500;7.772;2023-08-17T01:57:36;17.50;99.90
13794;DHT22;31160;49.500;7.772;2023-08-17T02:00:07;17.40;99.90
13794;DHT22;31160;49.500;7.772;2023-08-17T02:02:39;17.40;99.90
13794;DHT22;31160;49.500;7.772;2023-08-17T02:05:07;17.30;99.90
13794;DHT22;31160;49.500;7.772;2023-08-17T02:07:34;17.30;99.90
13794;DHT22;31160;49.500;7.772;2023-08-17T02:10:01;17.30;99.90
13794;DHT22;31160;49.500;7.772;2023-08-17T02:12:27;17.30;99.90
13794;DHT22;31160;49.500;7.772;2023-08-17T02:14:54;17.40;99.90
13794;DHT22;31160;49.500;7.772;2023-08-17T02:17:21;17.40;99.90
13794;DHT22;31160;49.500;7.772;2023-08-17T02:19:49;17.40;99.90
13794;DHT22;31160;49.500;7.772;2023-08-17T02:22:16;17.30;99.90
13794;DHT22;31160;49.500;7.772;2023-08-17T02:24:43;17.30;99.90
13794;DHT22;31160;49.500;7.772;2023-08-17T02:27:09;17.30;99.90
13794;DHT22;31160;49.500;7.772;2023-08-17T02:29:36;17.30;99.90
13794;DHT22;31160;49.500;7.772;2023-08-17T02:32:04;17.30;99.90
13794;DHT22;31160;49.500;7.772;2023-08-17T02:34:31;17.30;99.90
13794;DHT22;31160;49.500;7.772;2023-08-17T02:36:58;17.30;99.90
13794;DHT22;31160;49.500;7.772;2023-08-17T02:39:26;17.30;99.90
13794;DHT22;31160;49.500;7.772;2023-08-17T02:41:53;17.30;99.90
13794;DHT22;31160;49.500;7.772;2023-08-17T02:44:20;17.20;99.90
13794;DHT22;31160;49.500;7.772;2023-08-17T02:46:47;17.20;99.90
13794;DHT22;31160;49.500;7.772;2023-08-17T02:49:14;17.20;99.90
13794;DHT22;31160;49.500;7.772;2023-08-17T02:51:41;17.20;99.90
13794;DHT22;31160;49.500;7.772;2023-08-17T02:54:07;17.20;99.90
13794;DHT22;31160;49.500;7.772;2023-08-17T02:56:34;17.10;99.90
13794;DHT22;31160;49.500;7.772;2023-08-17T02:59:01;17.00;99.90
13794;DHT22;31160;49.500;7.772;2023-08-17T03:01:27;17.10;99.90
13794;DHT22;31160;49.500;7.772;2023-08-17T03:03:55;17.10;99.90
13794;DHT22;31160;49.500;7.772;2023-08-17T03:06:22;17.10;99.90
13794;DHT22;31160;49.500;7.772;2023-08-17T03:08:49;17.20;99.90
13794;DHT22;31160;49.500;7.772;2023-08-17T03:11:15;17.20;99.90
13794;DHT22;31160;49.500;7.772;2023-08-17T03:13:42;17.20;99.90
13794;DHT22;31160;49.500;7.772;2023-08-17T03:16:09;17.20;99.90
13794;DHT22;31160;49.500;7.772;2023-08-17T03:18:36;17.20;99.90
13794;DHT22;31160;49.500;7.772;2023-08-17T03:21:03;17.30;99.90
13794;DHT22;31160;49.500;7.772;2023-08-17T03:23:32;17.30;99.90
13794;DHT22;31160;49.500;7.772;2023-08-17T03:25:58;17.30;99.90
13794;DHT22;31160;49.500;7.772;2023-08-17T03:28:27;17.30;99.90
13794;DHT22;31160;49.500;7.772;2023-08-17T03:30:57;17.30;99.90
13794;DHT22;31160;49.500;7.772;2023-08-17T03:33:24;17.30;99.90
13794;DHT22;31160;49.500;7.772;2023-08-17T03:35:51;17.30;99.90
13794;DHT22;31160;49.500;7.772;2023-08-17T03:38:18;17.40;99.90
13794;DHT22;31160;49.500;7.772;2023-08-17T03:40:46;17.40;99.90
13794;DHT22;31160;49.500;7.772;2023-08-17T03:43:13;17.50;99.90
13794;DHT22;31160;49.500;7.772;2023-08-17T03:45:41;17.50;99.90
13794;DHT22;31160;49.500;7.772;2023-08-17T03:48:09;17.50;99.90
13794;DHT22;31160;49.500;7.772;2023-08-17T03:50:36;17.60;99.90
13794;DHT22;31160;49.500;7.772;2023-08-17T03:53:04;17.60;99.90
13794;DHT22;31160;49.500;7.772;2023-08-17T03:55:31;17.60;99.90
13794;DHT22;31160;49.500;7.772;2023-08-17T03:57:58;17.60;99.90
13794;DHT22;31160;49.500;7.772;2023-08-17T04:00:24;17.60;99.90
13794;DHT22;31160;49.500;7.772;2023-08-17T04:02:56;17.50;99.90
13794;DHT22;31160;49.500;7.772;2023-08-17T04:05:23;17.50;99.90
13794;DHT22;31160;49.500;7.772;2023-08-17T04:07:49;17.50;99.90
13794;DHT22;31160;49.500;7.772;2023-08-17T04:10:16;17.50;99.90
13794;DHT22;31160;49.500;7.772;2023-08-17T04:12:43;17.50;99.90
13794;DHT22;31160;49.500;7.772;2023-08-17T04:15:09;17.60;99.90
13794;DHT22;31160;49.500;7.772;2023-08-17T04:17:36;17.60;99.90
13794;DHT22;31160;49.500;7.772;2023-08-17T04:20:03;17.60;99.90
13794;DHT22;31160;49.500;7.772;2023-08-17T04:22:31;17.50;99.90
13794;DHT22;31160;49.500;7.772;2023-08-17T04:24:58;17.60;99.90
13794;DHT22;31160;49.500;7.772;2023-08-17T04:27:25;17.60;99.90
13794;DHT22;31160;49.500;7.772;2023-08-17T04:29:52;17.60;99.90
13794;DHT22;31160;49.500;7.772;2023-08-17T04:32:19;17.60;99.90
13794;DHT22;31160;49.500;7.772;2023-08-17T04:34:46;17.60;99.90
13794;DHT22;31160;49.500;7.772;2023-08-17T04:37:15;17.60;99.90
13794;DHT22;31160;49.500;7.772;2023-08-17T04:39:42;17.60;99.90
13794;DHT22;31160;49.500;7.772;2023-08-17T04:42:14;17.70;99.90
13794;DHT22;31160;49.500;7.772;2023-08-17T04:44:41;17.80;99.90
13794;DHT22;31160;49.500;7.772;2023-08-17T04:47:09;17.80;99.90
13794;DHT22;31160;49.500;7.772;2023-08-17T04:49:35;17.90;99.90
13794;DHT22;31160;49.500;7.772;2023-08-17T04:52:03;17.80;99.90
13794;DHT22;31160;49.500;7.772;2023-08-17T04:54:30;17.70;99.90
13794;DHT22;31160;49.500;7.772;2023-08-17T04:56:56;17.80;99.90
13794;DHT22;31160;49.500;7.772;2023-08-17T04:59:24;17.90;99.90
13794;DHT22;31160;49.500;7.772;2023-08-17T05:01:51;17.80;99.90
13794;DHT22;31160;49.500;7.772;2023-08-17T05:04:18;17.90;99.90
13794;DHT22;31160;49.500;7.772;2023-08-17T05:06:45;17.90;99.90
13794;DHT22;31160;49.500;7.772;2023-08-17T05:09:12;17.90;99.90
13794;DHT22;31160;49.500;7.772;2023-08-17T05:11:40;17.90;99.90
13794;DHT22;31160;49.500;7.772;2023-08-17T05:14:06;17.90;99.90
13794;DHT22;31160;49.500;7.772;2023-08-17T05:16:33;18.00;99.90
13794;DHT22;31160;49.500;7.772;2023-08-17T05:19:00;18.00;99.90
13794;DHT22;31160;49.500;7.772;2023-08-17T05:21:27;18.10;99.90
13794;DHT22;31160;49.500;7.772;2023-08-17T05:23:54;18.30;99.90
13794;DHT22;31160;49.500;7.772;2023-08-17T05:26:21;18.40;99.90
13794;DHT22;31160;49.500;7.772;2023-08-17T05:28:48;18.60;99.90
13794;DHT22;31160;49.500;7.772;2023-08-17T05:31:15;18.60;99.90
13794;DHT22;31160;49.500;7.772;2023-08-17T05:33:46;18.60;99.90
13794;DHT22;31160;49.500;7.772;2023-08-17T05:36:13;18.60;99.90
13794;DHT22;31160;49.500;7.772;2023-08-17T05:38:41;18.60;99.90
13794;DHT22;31160;49.500;7.772;2023-08-17T05:41:07;18.70;99.90
13794;DHT22;31160;49.500;7.772;2023-08-17T05:43:34;18.80;99.90
13794;DHT22;31160;49.500;7.772;2023-08-17T05:46:01;18.80;99.90
13794;DHT22;31160;49.500;7.772;2023-08-17T05:48:28;18.80;99.90
13794;DHT22;31160;49.500;7.772;2023-08-17T05:50:57;18.80;99.90
13794;DHT22;31160;49.500;7.772;2023-08-17T05:53:24;18.80;99.90
13794;DHT22;31160;49.500;7.772;2023-08-17T05:55:51;18.80;99.90
13794;DHT22;31160;49.500;7.772;2023-08-17T05:58:17;18.90;99.90
13794;DHT22;31160;49.500;7.772;2023-08-17T06:00:44;19.00;99.90
13794;DHT22;31160;49.500;7.772;2023-08-17T06:03:11;19.00;99.90
13794;DHT22;31160;49.500;7.772;2023-08-17T06:05:39;19.10;99.90
13794;DHT22;31160;49.500;7.772;2023-08-17T06:08:06;19.20;99.90
13794;DHT22;31160;49.500;7.772;2023-08-17T06:10:33;19.30;99.90
13794;DHT22;31160;49.500;7.772;2023-08-17T06:12:59;19.20;99.90
13794;DHT22;31160;49.500;7.772;2023-08-17T06:15:26;19.20;99.90
13794;DHT22;31160;49.500;7.772;2023-08-17T06:17:53;19.30;99.90
13794;DHT22;31160;49.500;7.772;2023-08-17T06:20:20;19.30;99.90
13794;DHT22;31160;49.500;7.772;2023-08-17T06:22:47;19.50;99.90
13794;DHT22;31160;49.500;7.772;2023-08-17T06:25:14;19.60;99.90
13794;DHT22;31160;49.500;7.772;2023-08-17T06:27:42;19.70;99.90
13794;DHT22;31160;49.500;7.772;2023-08-17T06:30:10;19.80;99.90
13794;DHT22;31160;49.500;7.772;2023-08-17T06:32:37;19.90;99.90
13794;DHT22;31160;49.500;7.772;2023-08-17T06:35:04;19.80;99.90
13794;DHT22;31160;49.500;7.772;2023-08-17T06:37:31;19.90;99.90
13794;DHT22;31160;49.500;7.772;2023-08-17T06:39:58;19.80;99.90
13794;DHT22;31160;49.500;7.772;2023-08-17T06:42:24;19.70;99.90
13794;DHT22;31160;49.500;7.772;2023-08-17T06:44:51;19.80;99.90
13794;DHT22;31160;49.500;7.772;2023-08-17T06:47:18;19.60;99.90
13794;DHT22;31160;49.500;7.772;2023-08-17T06:49:44;19.70;99.90
13794;DHT22;31160;49.500;7.772;2023-08-17T06:52:11;19.50;99.90
13794;DHT22;31160;49.500;7.772;2023-08-17T06:54:38;19.60;99.90
13794;DHT22;31160;49.500;7.772;2023-08-17T06:57:05;19.60;99.90
13794;DHT22;31160;49.500;7.772;2023-08-17T06:59:32;19.60;99.90
13794;DHT22;31160;49.500;7.772;2023-08-17T07:02:00;19.70;99.90
13794;DHT22;31160;49.500;7.772;2023-08-17T07:04:26;19.80;99.90
13794;DHT22;31160;49.500;7.772;2023-08-17T07:06:53;20.00;99.90
13794;DHT22;31160;49.500;7.772;2023-08-17T07:09:20;19.90;99.90
13794;DHT22;31160;49.500;7.772;2023-08-17T07:11:47;19.90;99.90
13794;DHT22;31160;49.500;7.772;2023-08-17T07:14:14;20.00;99.90
13794;DHT22;31160;49.500;7.772;2023-08-17T07:16:41;20.10;99.90
13794;DHT22;31160;49.500;7.772;2023-08-17T07:19:07;20.20;99.90
13794;DHT22;31160;49.500;7.772;2023-08-17T07:21:34;20.30;99.90
13794;DHT22;31160;49.500;7.772;2023-08-17T07:24:12;20.20;99.90
13794;DHT22;31160;49.500;7.772;2023-08-17T07:26:39;20.20;99.90
13794;DHT22;31160;49.500;7.772;2023-08-17T07:29:06;20.40;99.90
13794;DHT22;31160;49.500;7.772;2023-08-17T07:31:33;20.10;99.90
13794;DHT22;31160;49.500;7.772;2023-08-17T07:34:00;20.30;99.90
13794;DHT22;31160;49.500;7.772;2023-08-17T07:36:27;20.50;99.90
13794;DHT22;31160;49.500;7.772;2023-08-17T07:38:54;20.40;99.90
13794;DHT22;31160;49.500;7.772;2023-08-17T07:41:21;20.00;99.90
13794;DHT22;31160;49.500;7.772;2023-08-17T07:43:47;20.40;99.90
13794;DHT22;31160;49.500;7.772;2023-08-17T07:46:14;20.10;99.90
13794;DHT22;31160;49.500;7.772;2023-08-17T07:48:41;20.00;99.90
13794;DHT22;31160;49.500;7.772;2023-08-17T07:51:08;20.40;99.90
13794;DHT22;31160;49.500;7.772;2023-08-17T07:53:34;20.40;99.90
13794;DHT22;31160;49.500;7.772;2023-08-17T07:56:01;20.70;99.90
13794;DHT22;31160;49.500;7.772;2023-08-17T07:58:28;21.00;99.90
13794;DHT22;31160;49.500;7.772;2023-08-17T08:00:55;21.10;99.90
13794;DHT22;31160;49.500;7.772;2023-08-17T08:03:22;21.30;99.90
13794;DHT22;31160;49.500;7.772;2023-08-17T08:05:48;21.30;99.90
13794;DHT22;31160;49.500;7.772;2023-08-17T08:08:15;21.00;99.90
13794;DHT22;31160;49.500;7.772;2023-08-17T08:10:44;21.20;99.90
13794;DHT22;31160;49.500;7.772;2023-08-17T08:13:11;21.30;99.90
13794;DHT22;31160;49.500;7.772;2023-08-17T08:15:39;21.70;99.90
13794;DHT22;31160;49.500;7.772;2023-08-17T08:18:06;21.30;99.90
13794;DHT22;31160;49.500;7.772;2023-08-17T08:20:32;21.40;99.90
13794;DHT22;31160;49.500;7.772;2023-08-17T08:22:59;21.60;99.90
13794;DHT22;31160;49.500;7.772;2023-08-17T08:25:26;21.50;99.90
13794;DHT22;31160;49.500;7.772;2023-08-17T08:27:53;21.80;99.90
13794;DHT22;31160;49.500;7.772;2023-08-17T08:30:20;22.10;99.90
13794;DHT22;31160;49.500;7.772;2023-08-17T08:32:46;22.40;99.90
13794;DHT22;31160;49.500;7.772;2023-08-17T08:35:13;22.60;99.90
13794;DHT22;31160;49.500;7.772;2023-08-17T08:37:40;22.30;99.90
13794;DHT22;31160;49.500;7.772;2023-08-17T08:40:11;22.00;99.90
13794;DHT22;31160;49.500;7.772;2023-08-17T08:42:41;21.70;99.90
13794;DHT22;31160;49.500;7.772;2023-08-17T08:45:08;21.90;99.90
13794;DHT22;31160;49.500;7.772;2023-08-17T08:47:40;22.10;99.90
13794;DHT22;31160;49.500;7.772;2023-08-17T08:50:08;22.30;99.90
13794;DHT22;31160;49.500;7.772;2023-08-17T08:52:46;22.50;99.90
13794;DHT22;31160;49.500;7.772;2023-08-17T08:55:18;22.20;99.90
13794;DHT22;31160;49.500;7.772;2023-08-17T08:57:46;22.70;99.90
13794;DHT22;31160;49.500;7.772;2023-08-17T09:00:18;23.00;99.90
13794;DHT22;31160;49.500;7.772;2023-08-17T09:02:46;22.90;99.90
13794;DHT22;31160;49.500;7.772;2023-08-17T09:05:13;23.00;99.90
13794;DHT22;31160;49.500;7.772;2023-08-17T09:07:42;23.20;99.90
13794;DHT22;31160;49.500;7.772;2023-08-17T09:10:10;23.30;99.90
13794;DHT22;31160;49.500;7.772;2023-08-17T09:12:37;23.60;99.90
13794;DHT22;31160;49.500;7.772;2023-08-17T09:15:07;23.30;99.90
13794;DHT22;31160;49.500;7.772;2023-08-17T09:17:34;23.10;99.90
13794;DHT22;31160;49.500;7.772;2023-08-17T09:20:02;23.60;99.90
13794;DHT22;31160;49.500;7.772;2023-08-17T09:22:43;23.80;99.90
13794;DHT22;31160;49.500;7.772;2023-08-17T09:25:11;23.70;99.90
13794;DHT22;31160;49.500;7.772;2023-08-17T09:27:48;24.10;99.90
13794;DHT22;31160;49.500;7.772;2023-08-17T09:30:15;24.20;99.90
13794;DHT22;31160;49.500;7.772;2023-08-17T09:32:47;24.40;99.90
13794;DHT22;31160;49.500;7.772;2023-08-17T09:35:14;24.60;99.90
13794;DHT22;31160;49.500;7.772;2023-08-17T09:37:41;24.70;99.90
13794;DHT22;31160;49.500;7.772;2023-08-17T09:40:08;24.40;99.90
13794;DHT22;31160;49.500;7.772;2023-08-17T09:42:35;24.80;99.90
13794;DHT22;31160;49.500;7.772;2023-08-17T09:45:02;24.70;99.90
13794;DHT22;31160;49.500;7.772;2023-08-17T09:47:29;25.00;99.90
13794;DHT22;31160;49.500;7.772;2023-08-17T09:49:56;24.80;99.90
13794;DHT22;31160;49.500;7.772;2023-08-17T09:52:24;24.80;99.90
13794;DHT22;31160;49.500;7.772;2023-08-17T09:54:52;24.40;99.90
13794;DHT22;31160;49.500;7.772;2023-08-17T09:57:19;24.40;99.90
13794;DHT22;31160;49.500;7.772;2023-08-17T09:59:49;24.50;99.90
13794;DHT22;31160;49.500;7.772;2023-08-17T10:02:22;24.00;99.90
13794;DHT22;31160;49.500;7.772;2023-08-17T10:04:52;24.60;99.90
13794;DHT22;31160;49.500;7.772;2023-08-17T10:07:20;24.80;99.90
13794;DHT22;31160;49.500;7.772;2023-08-17T10:09:59;24.80;99.90
13794;DHT22;31160;49.500;7.772;2023-08-17T10:12:27;25.10;99.90
13794;DHT22;31160;49.500;7.772;2023-08-17T10:14:59;25.00;99.90
13794;DHT22;31160;49.500;7.772;2023-08-17T10:17:37;24.70;99.90
13794;DHT22;31160;49.500;7.772;2023-08-17T10:20:07;25.00;99.90
13794;DHT22;31160;49.500;7.772;2023-08-17T10:22:52;24.90;99.90
13794;DHT22;31160;49.500;7.772;2023-08-17T10:25:23;24.40;99.90
13794;DHT22;31160;49.500;7.772;2023-08-17T10:27:51;24.20;99.90
13794;DHT22;31160;49.500;7.772;2023-08-17T10:30:18;24.40;99.90
13794;DHT22;31160;49.500;7.772;2023-08-17T10:32:45;24.30;99.90
13794;DHT22;31160;49.500;7.772;2023-08-17T10:35:14;24.40;99.90
13794;DHT22;31160;49.500;7.772;2023-08-17T10:37:41;24.20;99.90
13794;DHT22;31160;49.500;7.772;2023-08-17T10:40:09;24.00;99.90
13794;DHT22;31160;49.500;7.772;2023-08-17T10:42:40;24.00;99.90
13794;DHT22;31160;49.500;7.772;2023-08-17T10:45:28;24.00;99.90
13794;DHT22;31160;49.500;7.772;2023-08-17T10:50:37;23.80;99.90
13794;DHT22;31160;49.500;7.772;2023-08-17T10:53:12;23.70;99.90
13794;DHT22;31160;49.500;7.772;2023-08-17T10:55:41;23.80;99.90
13794;DHT22;31160;49.500;7.772;2023-08-17T10:58:08;23.90;99.90
13794;DHT22;31160;49.500;7.772;2023-08-17T11:00:41;24.00;99.90
13794;DHT22;31160;49.500;7.772;2023-08-17T11:03:19;24.40;99.90
13794;DHT22;31160;49.500;7.772;2023-08-17T11:05:49;24.90;99.90
13794;DHT22;31160;49.500;7.772;2023-08-17T11:08:38;25.20;99.90
13794;DHT22;31160;49.500;7.772;2023-08-17T11:11:13;25.90;99.90
13794;DHT22;31160;49.500;7.772;2023-08-17T11:13:44;26.20;99.90
13794;DHT22;31160;49.500;7.772;2023-08-17T11:16:12;26.30;99.90
13794;DHT22;31160;49.500;7.772;2023-08-17T11:18:44;26.10;99.90
13794;DHT22;31160;49.500;7.772;2023-08-17T11:21:11;26.00;99.90
13794;DHT22;31160;49.500;7.772;2023-08-17T11:23:45;25.80;99.90
13794;DHT22;31160;49.500;7.772;2023-08-17T11:26:18;25.60;99.90
13794;DHT22;31160;49.500;7.772;2023-08-17T11:28:45;25.40;99.90
13794;DHT22;31160;49.500;7.772;2023-08-17T11:31:14;25.20;99.90
13794;DHT22;31160;49.500;7.772;2023-08-17T11:33:42;25.10;99.90
13794;DHT22;31160;49.500;7.772;2023-08-17T11:36:10;24.60;99.90
13794;DHT22;31160;49.500;7.772;2023-08-17T11:38:38;24.50;99.90
13794;DHT22;31160;49.500;7.772;2023-08-17T11:41:06;24.60;99.90
13794;DHT22;31160;49.500;7.772;2023-08-17T11:43:35;24.40;99.90
13794;DHT22;31160;49.500;7.772;2023-08-17T11:46:03;24.20;99.90
13794;DHT22;31160;49.500;7.772;2023-08-17T11:48:30;23.90;99.90
13794;DHT22;31160;49.500;7.772;2023-08-17T11:51:02;23.80;99.90
13794;DHT22;31160;49.500;7.772;2023-08-17T11:53:35;23.60;99.90
13794;DHT22;31160;49.500;7.772;2023-08-17T11:56:02;23.30;99.90
13794;DHT22;31160;49.500;7.772;2023-08-17T11:58:45;23.10;99.90
13794;DHT22;31160;49.500;7.772;2023-08-17T12:01:13;23.10;99.90
13794;DHT22;31160;49.500;7.772;2023-08-17T12:03:42;22.80;99.90
13794;DHT22;31160;49.500;7.772;2023-08-17T12:06:10;22.50;99.90
13794;DHT22;31160;49.500;7.772;2023-08-17T12:08:45;22.50;99.90
13794;DHT22;31160;49.500;7.772;2023-08-17T12:11:13;22.60;99.90
13794;DHT22;31160;49.500;7.772;2023-08-17T12:13:41;22.70;99.90
13794;DHT22;31160;49.500;7.772;2023-08-17T12:16:14;22.70;99.90
13794;DHT22;31160;49.500;7.772;2023-08-17T12:18:50;22.70;99.90
13794;DHT22;31160;49.500;7.772;2023-08-17T12:21:20;22.70;99.90
13794;DHT22;31160;49.500;7.772;2023-08-17T12:23:47;22.70;99.90
13794;DHT22;31160;49.500;7.772;2023-08-17T12:26:21;22.80;99.90
13794;DHT22;31160;49.500;7.772;2023-08-17T12:28:51;22.90;99.90
13794;DHT22;31160;49.500;7.772;2023-08-17T12:31:22;22.90;99.90
13794;DHT22;31160;49.500;7.772;2023-08-17T12:33:51;23.10;99.90
13794;DHT22;31160;49.500;7.772;2023-08-17T12:36:17;23.30;99.90
13794;DHT22;31160;49.500;7.772;2023-08-17T12:38:47;23.60;99.90
13794;DHT22;31160;49.500;7.772;2023-08-17T12:41:14;23.90;99.90
13794;DHT22;31160;49.500;7.772;2023-08-17T12:43:41;24.10;99.90
13794;DHT22;31160;49.500;7.772;2023-08-17T12:46:08;24.40;99.90
13794;DHT22;31160;49.500;7.772;2023-08-17T12:48:35;24.00;99.90
13794;DHT22;31160;49.500;7.772;2023-08-17T12:51:02;24.40;99.90
13794;DHT22;31160;49.500;7.772;2023-08-17T12:53:31;24.40;99.90
13794;DHT22;31160;49.500;7.772;2023-08-17T12:55:58;24.70;99.90
13794;DHT22;31160;49.500;7.772;2023-08-17T12:58:25;24.70;99.90
13794;DHT22;31160;49.500;7.772;2023-08-17T13:00:51;24.60;99.90
13794;DHT22;31160;49.500;7.772;2023-08-17T13:03:21;24.50;99.90
13794;DHT22;31160;49.500;7.772;2023-08-17T13:05:47;24.60;99.90
13794;DHT22;31160;49.500;7.772;2023-08-17T13:08:14;24.60;99.90
13794;DHT22;31160;49.500;7.772;2023-08-17T13:10:41;24.60;99.90
13794;DHT22;31160;49.500;7.772;2023-08-17T13:13:08;24.30;99.90
13794;DHT22;31160;49.500;7.772;2023-08-17T13:15:35;24.10;99.90
13794;DHT22;31160;49.500;7.772;2023-08-17T13:18:02;24.10;99.90
13794;DHT22;31160;49.500;7.772;2023-08-17T13:20:29;24.00;99.90
13794;DHT22;31160;49.500;7.772;2023-08-17T13:22:56;23.80;99.90
13794;DHT22;31160;49.500;7.772;2023-08-17T13:25:23;23.90;99.90
13794;DHT22;31160;49.500;7.772;2023-08-17T13:27:50;23.80;99.90
13794;DHT22;31160;49.500;7.772;2023-08-17T13:30:16;23.80;99.90
13794;DHT22;31160;49.500;7.772;2023-08-17T13:32:43;23.80;99.90
13794;DHT22;31160;49.500;7.772;2023-08-17T13:35:14;23.80;99.90
13794;DHT22;31160;49.500;7.772;2023-08-17T13:37:41;24.00;99.90
13794;DHT22;31160;49.500;7.772;2023-08-17T13:40:08;24.40;99.90
13794;DHT22;31160;49.500;7.772;2023-08-17T13:42:35;24.20;99.90
13794;DHT22;31160;49.500;7.772;2023-08-17T13:45:03;24.40;99.90
13794;DHT22;31160;49.500;7.772;2023-08-17T13:47:30;24.40;99.90
13794;DHT22;31160;49.500;7.772;2023-08-17T13:49:57;24.50;99.90
13794;DHT22;31160;49.500;7.772;2023-08-17T13:52:25;24.60;99.90
13794;DHT22;31160;49.500;7.772;2023-08-17T13:54:52;24.70;99.90
13794;DHT22;31160;49.500;7.772;2023-08-17T13:57:19;25.00;99.90
13794;DHT22;31160;49.500;7.772;2023-08-17T13:59:45;25.10;99.90
13794;DHT22;31160;49.500;7.772;2023-08-17T14:02:12;24.90;99.90
13794;DHT22;31160;49.500;7.772;2023-08-17T14:04:39;24.70;99.90
13794;DHT22;31160;49.500;7.772;2023-08-17T14:07:06;25.10;99.90
13794;DHT22;31160;49.500;7.772;2023-08-17T14:09:32;25.60;99.90
13794;DHT22;31160;49.500;7.772;2023-08-17T14:11:59;26.10;99.90
13794;DHT22;31160;49.500;7.772;2023-08-17T14:14:27;26.30;99.90
13794;DHT22;31160;49.500;7.772;2023-08-17T14:16:54;26.50;99.90
13794;DHT22;31160;49.500;7.772;2023-08-17T14:19:21;26.80;99.90
13794;DHT22;31160;49.500;7.772;2023-08-17T14:21:48;26.70;99.90
13794;DHT22;31160;49.500;7.772;2023-08-17T14:24:15;26.90;99.90
13794;DHT22;31160;49.500;7.772;2023-08-17T14:26:42;26.60;99.90
13794;DHT22;31160;49.500;7.772;2023-08-17T14:29:09;26.20;99.90
13794;DHT22;31160;49.500;7.772;2023-08-17T14:31:35;26.10;99.90
13794;DHT22;31160;49.500;7.772;2023-08-17T14:34:02;25.80;99.90
13794;DHT22;31160;49.500;7.772;2023-08-17T14:36:32;25.90;99.90
13794;DHT22;31160;49.500;7.772;2023-08-17T14:38:59;26.30;99.90
13794;DHT22;31160;49.500;7.772;2023-08-17T14:41:26;26.50;99.90
13794;DHT22;31160;49.500;7.772;2023-08-17T14:44:01;26.80;99.90
13794;DHT22;31160;49.500;7.772;2023-08-17T14:46:29;26.80;99.90
13794;DHT22;31160;49.500;7.772;2023-08-17T14:48:59;26.80;99.90
13794;DHT22;31160;49.500;7.772;2023-08-17T14:51:25;26.90;99.90
13794;DHT22;31160;49.500;7.772;2023-08-17T14:53:55;26.70;99.90
13794;DHT22;31160;49.500;7.772;2023-08-17T14:56:22;26.70;99.90
13794;DHT22;31160;49.500;7.772;2023-08-17T14:58:49;26.00;99.90
13794;DHT22;31160;49.500;7.772;2023-08-17T15:01:16;26.00;99.90
13794;DHT22;31160;49.500;7.772;2023-08-17T15:03:44;25.70;99.90
13794;DHT22;31160;49.500;7.772;2023-08-17T15:06:11;25.30;99.90
13794;DHT22;31160;49.500;7.772;2023-08-17T15:08:57;25.20;99.90
13794;DHT22;31160;49.500;7.772;2023-08-17T15:11:24;25.40;99.90
13794;DHT22;31160;49.500;7.772;2023-08-17T15:13:51;25.60;99.90
13794;DHT22;31160;49.500;7.772;2023-08-17T15:16:17;25.60;99.90
13794;DHT22;31160;49.500;7.772;2023-08-17T15:18:51;25.70;99.90
13794;DHT22;31160;49.500;7.772;2023-08-17T15:21:18;25.80;99.90
13794;DHT22;31160;49.500;7.772;2023-08-17T15:23:45;25.80;99.90
13794;DHT22;31160;49.500;7.772;2023-08-17T15:26:12;25.80;99.90
13794;DHT22;31160;49.500;7.772;2023-08-17T15:28:40;25.70;99.90
13794;DHT22;31160;49.500;7.772;2023-08-17T15:31:07;25.80;99.90
13794;DHT22;31160;49.500;7.772;2023-08-17T15:33:40;25.80;99.90
13794;DHT22;31160;49.500;7.772;2023-08-17T15:36:07;25.80;99.90
13794;DHT22;31160;49.500;7.772;2023-08-17T15:38:34;25.60;99.90